LFRB/BES METAR and TAF weather

Enter ICAO airport designator
Station Type Date Time Source
LFRB METAR 2022/05/23 14:00 UTC NOAA

LFRB 231400Z AUTO 29008KT 260V340 9999 FEW012/// SCT026/// BKN033/// ///CB 14/12 Q1007 TEMPO 28015G30KT 2000 SHRA BKN012 BKN025CB


Station Type Date Time Source
LFRB Decoded METAR 2022/05/23 14:00 UTC NOAA

Brest, France (LFRB) 48-27N 004-25W 103M
May 23, 2022 - 10:00 AM EDT / 2022.05.23 1400 UTC
Wind: from the WNW (290 degrees) at 9 MPH (8 KT) (direction variable):0
Visibility: greater than 7 mile(s):0
Sky conditions: mostly cloudy
Weather: Cumulonimbus clouds observed
Temperature: 57 F (14 C)
Dew Point: 53 F (12 C)
Relative Humidity: 87%
Pressure (altimeter): 29.74 in. Hg (1007 hPa)
ob: LFRB 231400Z AUTO 29008KT 260V340 9999 FEW012/// SCT026/// BKN033/// ///CB 14/12 Q1007 TEMPO 28015G30KT 2000 SHRA BKN012 BKN025CB
cycle: 14

Station Type Date Time Source
LFRB TAF 2022/05/23 12:22 UTC NOAA

TAF LFRB 231100Z 2312/2418 29010KT 9999 BKN025
TEMPO 2312/2415 4000 SHRA BKN025TCU PROB40
TEMPO 2313/2323 28015G30KT 2000 SHRA BKN012 BKN025CB
BECMG 2402/2404 VRB05KT PROB40
TEMPO 2408/2412 2000 SHRA BKN012 BKN020CB
BECMG 2410/2412 29010KT

Example: see airport list